createdAt,value
2017-03-05T00:00:56.938Z,0
2017-03-05T00:03:13.001Z,0
2017-03-05T00:03:55.631Z,0
2017-03-05T00:04:38.304Z,0
2017-03-05T00:05:21.192Z,0
2017-03-05T00:06:03.571Z,0
2017-03-05T00:06:46.261Z,0
2017-03-05T00:07:28.754Z,0
2017-03-05T00:08:11.159Z,0
2017-03-05T00:08:53.638Z,0
2017-03-05T00:09:35.743Z,0
2017-03-05T00:10:17.801Z,0
2017-03-05T00:12:56.041Z,0
2017-03-05T00:13:38.308Z,0
2017-03-05T00:14:20.739Z,0
2017-03-05T00:15:03.380Z,0
2017-03-05T00:15:46.407Z,0
2017-03-05T00:16:28.792Z,0
2017-03-05T00:17:11.361Z,0
2017-03-05T00:17:53.575Z,0
2017-03-05T00:18:36.091Z,0
2017-03-05T00:20:36.895Z,0
2017-03-05T00:22:58.539Z,0
2017-03-05T00:23:41.127Z,0
2017-03-05T00:24:23.749Z,0
2017-03-05T00:26:24.850Z,0
2017-03-05T00:27:07.187Z,0
2017-03-05T00:27:49.944Z,0
2017-03-05T00:28:32.422Z,0
2017-03-05T00:29:15.027Z,0
2017-03-05T00:29:57.498Z,0
2017-03-05T00:30:40.187Z,0
2017-03-05T00:31:22.623Z,0
2017-03-05T00:33:39.122Z,0
2017-03-05T00:34:22.074Z,0
2017-03-05T00:35:04.707Z,0
2017-03-05T00:35:46.957Z,0
2017-03-05T00:36:29.361Z,0
2017-03-05T00:38:45.687Z,0
2017-03-05T00:39:28.538Z,0
2017-03-05T00:40:10.937Z,0
2017-03-05T00:40:53.067Z,0
2017-03-05T00:41:35.146Z,0
2017-03-05T00:42:18.254Z,0
2017-03-05T00:43:00.936Z,0
2017-03-05T00:43:43.034Z,0
2017-03-05T00:44:25.809Z,0
2017-03-05T00:45:07.959Z,0
2017-03-05T00:45:50.926Z,0
2017-03-05T00:46:33.504Z,0
2017-03-05T00:47:15.820Z,0
2017-03-05T00:47:58.262Z,0
2017-03-05T00:48:41.158Z,0
2017-03-05T00:49:23.767Z,0
2017-03-05T00:50:06.566Z,0
2017-03-05T00:50:48.988Z,0
2017-03-05T00:51:31.448Z,0
2017-03-05T00:52:14.042Z,0
2017-03-05T00:52:56.455Z,0
2017-03-05T00:53:39.157Z,0
2017-03-05T00:54:23.416Z,0
2017-03-05T00:55:06.106Z,0
2017-03-05T00:55:48.472Z,0
2017-03-05T00:56:30.594Z,0
2017-03-05T00:57:13.207Z,0
2017-03-05T00:57:55.993Z,0
2017-03-05T00:58:39.081Z,0
2017-03-05T00:59:21.671Z,0
2017-03-05T01:00:04.229Z,0
2017-03-05T01:00:46.835Z,0
2017-03-05T01:01:29.633Z,0
2017-03-05T01:02:11.907Z,0
2017-03-05T01:02:54.389Z,0
2017-03-05T01:03:36.829Z,0
2017-03-05T01:04:19.073Z,0
2017-03-05T01:05:01.987Z,0
2017-03-05T01:05:44.876Z,0
2017-03-05T01:08:16.985Z,0
2017-03-05T01:10:38.461Z,0
2017-03-05T01:11:20.739Z,0
2017-03-05T01:12:03.232Z,0
2017-03-05T01:14:19.395Z,0
2017-03-05T01:16:56.791Z,0
2017-03-05T01:17:39.008Z,0
2017-03-05T01:18:21.290Z,0
2017-03-05T01:22:26.865Z,0
2017-03-05T01:23:09.295Z,0
2017-03-05T01:23:51.837Z,0
2017-03-05T01:24:34.468Z,0
2017-03-05T01:25:17.446Z,0
2017-03-05T01:25:59.917Z,0
2017-03-05T01:26:42.424Z,0
2017-03-05T01:27:24.691Z,0
2017-03-05T01:28:05.804Z,0
2017-03-05T01:28:46.334Z,0
2017-03-05T01:29:26.876Z,0
2017-03-05T01:30:07.410Z,0
2017-03-05T01:30:47.945Z,0
2017-03-05T01:31:28.487Z,0
2017-03-05T01:32:11.171Z,0
2017-03-05T01:32:53.995Z,0
2017-03-05T01:35:31.718Z,0
2017-03-05T01:36:14.589Z,0
2017-03-05T01:36:57.415Z,0
2017-03-05T01:37:39.754Z,0
2017-03-05T01:40:17.713Z,0
2017-03-05T01:41:00.186Z,0
2017-03-05T01:41:42.951Z,0
2017-03-05T01:42:25.412Z,0
2017-03-05T01:43:07.998Z,0
2017-03-05T01:43:50.491Z,0
2017-03-05T01:44:33.344Z,0
2017-03-05T01:45:15.632Z,0
2017-03-05T01:47:53.455Z,0
2017-03-05T01:48:36.095Z,0
2017-03-05T01:49:18.333Z,0
2017-03-05T01:50:01.015Z,0
2017-03-05T01:52:33.324Z,0
2017-03-05T01:53:15.982Z,0
2017-03-05T01:53:58.232Z,0
2017-03-05T01:54:40.560Z,0
2017-03-05T01:55:23.207Z,0
2017-03-05T01:56:06.042Z,0
2017-03-05T01:56:48.608Z,0
2017-03-05T01:57:31.688Z,0
2017-03-05T01:58:14.537Z,0
2017-03-05T01:58:57.229Z,0
2017-03-05T01:59:39.800Z,0
2017-03-05T02:01:55.979Z,0
2017-03-05T02:02:37.990Z,0
2017-03-05T02:03:20.385Z,0
2017-03-05T02:04:03.370Z,0
2017-03-05T02:06:23.489Z,0
2017-03-05T02:07:04.036Z,0
2017-03-05T02:07:44.572Z,0
2017-03-05T02:08:25.114Z,0
2017-03-05T02:09:05.656Z,0
2017-03-05T02:09:46.191Z,0
2017-03-05T02:10:26.727Z,0
2017-03-05T02:11:07.260Z,0
2017-03-05T02:11:47.802Z,0
2017-03-05T02:12:28.349Z,0
2017-03-05T02:13:08.892Z,0
2017-03-05T02:13:49.429Z,0
2017-03-05T02:14:29.970Z,0
2017-03-05T02:15:10.521Z,0
2017-03-05T02:15:51.063Z,0
2017-03-05T02:16:31.593Z,0
2017-03-05T02:17:12.133Z,0
2017-03-05T02:17:52.672Z,0
2017-03-05T02:18:33.208Z,0
2017-03-05T02:19:13.754Z,0
2017-03-05T02:19:54.296Z,0
2017-03-05T02:20:34.832Z,0
2017-03-05T02:21:15.376Z,0
2017-03-05T02:21:55.913Z,0
2017-03-05T02:22:36.452Z,0
2017-03-05T02:23:16.991Z,0
2017-03-05T02:23:57.522Z,0
2017-03-05T02:24:38.059Z,0
2017-03-05T02:25:18.607Z,0
2017-03-05T02:25:59.152Z,0
2017-03-05T02:26:39.682Z,0
2017-03-05T02:27:20.233Z,0
2017-03-05T02:28:00.772Z,0
2017-03-05T02:28:41.304Z,0
2017-03-05T02:29:21.848Z,0
2017-03-05T02:30:02.383Z,0
2017-03-05T02:30:42.969Z,0
2017-03-05T02:31:23.507Z,0
2017-03-05T02:32:04.051Z,0
2017-03-05T02:32:44.593Z,0
2017-03-05T02:33:25.130Z,0
2017-03-05T02:34:05.676Z,0
2017-03-05T02:34:46.220Z,0
2017-03-05T02:35:26.764Z,0
2017-03-05T02:36:07.311Z,0
2017-03-05T02:36:47.851Z,0
2017-03-05T02:37:28.393Z,0
2017-03-05T02:38:08.942Z,0
2017-03-05T02:38:49.467Z,0
2017-03-05T02:39:30.005Z,0
2017-03-05T02:40:10.544Z,0
2017-03-05T02:40:51.082Z,0
2017-03-05T02:41:31.631Z,0
2017-03-05T02:42:12.180Z,0
2017-03-05T02:42:52.726Z,0
2017-03-05T02:43:33.258Z,0
2017-03-05T02:44:13.798Z,0
2017-03-05T02:44:54.344Z,0
2017-03-05T02:45:34.871Z,0
2017-03-05T02:46:15.413Z,0
2017-03-05T02:46:55.943Z,0
2017-03-05T02:47:36.489Z,0
2017-03-05T02:48:17.031Z,0
2017-03-05T02:48:57.576Z,0
2017-03-05T02:49:38.107Z,0
2017-03-05T02:50:18.654Z,0
2017-03-05T02:50:59.198Z,0
2017-03-05T02:51:39.731Z,0
2017-03-05T02:52:20.268Z,0
2017-03-05T02:53:00.808Z,0
2017-03-05T02:53:41.347Z,0
2017-03-05T02:54:21.890Z,0
2017-03-05T02:55:02.430Z,0
2017-03-05T02:55:42.969Z,0
2017-03-05T02:56:23.510Z,0
2017-03-05T02:57:04.053Z,0
2017-03-05T02:57:44.596Z,0
2017-03-05T02:58:25.137Z,0
2017-03-05T02:59:05.679Z,0
2017-03-05T02:59:46.219Z,0
2017-03-05T03:00:26.766Z,0
2017-03-05T03:01:07.307Z,0
2017-03-05T03:01:47.853Z,0
2017-03-05T03:02:28.399Z,0
2017-03-05T03:03:08.948Z,0
2017-03-05T03:03:49.499Z,0
2017-03-05T03:04:30.032Z,0
2017-03-05T03:05:10.573Z,0
2017-03-05T03:05:51.119Z,0
2017-03-05T03:06:31.659Z,0
2017-03-05T03:07:12.196Z,0
2017-03-05T03:07:52.732Z,0
2017-03-05T03:08:33.266Z,0
2017-03-05T03:09:13.809Z,0
2017-03-05T03:09:54.353Z,0
2017-03-05T03:10:34.904Z,0
2017-03-05T03:11:15.453Z,0
2017-03-05T03:11:55.996Z,0
2017-03-05T03:12:36.535Z,0
2017-03-05T03:13:17.076Z,0
2017-03-05T03:13:57.642Z,0
2017-03-05T03:14:38.143Z,0
2017-03-05T03:15:18.688Z,0
2017-03-05T03:15:59.230Z,0
2017-03-05T03:16:39.770Z,0
2017-03-05T03:17:20.311Z,0
2017-03-05T03:18:00.863Z,0
2017-03-05T03:18:41.416Z,0
2017-03-05T03:19:21.963Z,0
2017-03-05T03:20:02.513Z,0
2017-03-05T03:20:43.066Z,0
2017-03-05T03:21:23.614Z,0
2017-03-05T03:22:04.159Z,0
2017-03-05T03:22:44.689Z,0
2017-03-05T03:23:25.237Z,0
2017-03-05T03:24:05.781Z,0
2017-03-05T03:24:46.314Z,0
2017-03-05T03:25:26.846Z,0
2017-03-05T03:26:07.378Z,0
2017-03-05T03:26:47.919Z,0
2017-03-05T03:27:28.452Z,0
2017-03-05T03:28:08.986Z,0
2017-03-05T03:28:49.519Z,0
2017-03-05T03:29:30.044Z,0
2017-03-05T03:30:10.575Z,0
2017-03-05T03:30:51.094Z,0
2017-03-05T03:31:31.631Z,0
2017-03-05T03:32:12.159Z,0
2017-03-05T03:32:52.694Z,0
2017-03-05T03:33:33.226Z,0
2017-03-05T03:34:13.760Z,0
2017-03-05T03:34:54.289Z,0
2017-03-05T03:35:34.819Z,0
2017-03-05T03:36:15.348Z,0
2017-03-05T03:36:55.880Z,0
2017-03-05T03:37:36.413Z,0
2017-03-05T03:38:16.942Z,0
2017-03-05T03:38:57.480Z,0
2017-03-05T03:39:38.005Z,0
2017-03-05T03:40:18.535Z,0
2017-03-05T03:40:59.070Z,0
2017-03-05T03:41:39.594Z,0
2017-03-05T03:42:20.182Z,0
2017-03-05T03:43:00.718Z,0
2017-03-05T03:43:41.256Z,0
2017-03-05T03:44:21.792Z,0
2017-03-05T03:45:02.326Z,0
2017-03-05T03:45:42.859Z,0
2017-03-05T03:46:23.394Z,0
2017-03-05T03:47:03.931Z,0
2017-03-05T03:47:44.465Z,0
2017-03-05T03:48:24.998Z,0
2017-03-05T03:49:05.531Z,0
2017-03-05T03:49:46.066Z,0
2017-03-05T03:50:26.591Z,0
2017-03-05T03:51:07.120Z,0
2017-03-05T03:51:47.651Z,0
2017-03-05T03:52:28.188Z,0
2017-03-05T03:53:08.721Z,0
2017-03-05T03:53:49.259Z,0
2017-03-05T03:54:29.789Z,0
2017-03-05T03:55:10.323Z,0
2017-03-05T03:55:50.882Z,0
2017-03-05T03:56:31.420Z,0
2017-03-05T03:57:11.947Z,0
2017-03-05T03:57:52.478Z,0
2017-03-05T03:58:33.000Z,0
2017-03-05T03:59:13.540Z,0
2017-03-05T03:59:54.073Z,0
2017-03-05T04:00:34.606Z,0
2017-03-05T04:01:15.138Z,0
2017-03-05T04:01:55.668Z,0
2017-03-05T04:02:36.202Z,0
2017-03-05T04:03:16.733Z,0
2017-03-05T04:03:57.270Z,0
2017-03-05T04:04:37.808Z,0
2017-03-05T04:05:18.345Z,0
2017-03-05T04:05:58.879Z,0
2017-03-05T04:06:39.404Z,0
2017-03-05T04:07:19.938Z,0
2017-03-05T04:08:00.467Z,0
2017-03-05T04:08:41.001Z,0
2017-03-05T04:09:21.531Z,0
2017-03-05T04:10:02.062Z,0
2017-03-05T04:10:42.599Z,0
2017-03-05T04:11:23.129Z,0
2017-03-05T04:12:03.664Z,0
2017-03-05T04:12:44.195Z,0
2017-03-05T04:13:24.721Z,0
2017-03-05T04:14:05.250Z,0
2017-03-05T04:14:45.782Z,0
2017-03-05T04:15:26.316Z,0
2017-03-05T04:16:06.848Z,0
2017-03-05T04:16:47.374Z,0
2017-03-05T04:17:27.903Z,0
2017-03-05T04:18:08.429Z,0
2017-03-05T04:18:48.955Z,0
2017-03-05T04:19:29.484Z,0
2017-03-05T04:20:10.016Z,0
2017-03-05T04:20:50.553Z,0
2017-03-05T04:21:31.086Z,0
2017-03-05T04:22:11.619Z,0
2017-03-05T04:22:52.144Z,0
2017-03-05T04:23:32.672Z,0
2017-03-05T04:24:13.206Z,0
2017-03-05T04:24:53.740Z,0
2017-03-05T04:25:34.274Z,0
2017-03-05T04:26:14.808Z,0
2017-03-05T04:26:55.339Z,0
2017-03-05T04:27:35.870Z,0
2017-03-05T04:28:16.408Z,0
2017-03-05T04:28:56.942Z,0
2017-03-05T04:29:37.476Z,0
2017-03-05T04:30:18.009Z,0
2017-03-05T04:30:58.544Z,0
2017-03-05T04:31:39.075Z,0
2017-03-05T04:32:19.713Z,0
2017-03-05T04:33:00.187Z,0
2017-03-05T04:33:40.718Z,0
2017-03-05T04:34:21.250Z,0
2017-03-05T04:35:01.781Z,0
2017-03-05T04:35:42.316Z,0
2017-03-05T04:36:22.842Z,0
2017-03-05T04:37:03.375Z,0
2017-03-05T04:37:43.908Z,0
2017-03-05T04:38:24.433Z,0
2017-03-05T04:39:04.961Z,0
2017-03-05T04:39:45.494Z,0
2017-03-05T04:40:26.025Z,0
2017-03-05T04:41:06.560Z,0
2017-03-05T04:41:47.118Z,0
2017-03-05T04:42:27.731Z,0
2017-03-05T04:43:08.265Z,0
2017-03-05T04:43:48.796Z,0
2017-03-05T04:44:29.331Z,0
2017-03-05T04:45:09.867Z,0
2017-03-05T04:45:50.391Z,0
2017-03-05T04:46:30.922Z,0
2017-03-05T04:47:11.447Z,0
2017-03-05T04:47:51.979Z,0
2017-03-05T04:48:32.512Z,0
2017-03-05T04:49:13.040Z,0
2017-03-05T04:49:53.570Z,0
2017-03-05T04:50:34.096Z,0
2017-03-05T04:51:14.627Z,0
2017-03-05T04:51:55.160Z,0
2017-03-05T04:52:35.692Z,0
2017-03-05T04:53:16.230Z,0
2017-03-05T04:53:56.753Z,0
2017-03-05T04:54:37.284Z,0
2017-03-05T04:55:18.023Z,0
2017-03-05T04:55:58.655Z,0
2017-03-05T04:56:39.192Z,0
2017-03-05T04:57:19.730Z,0
2017-03-05T04:58:00.261Z,0
2017-03-05T04:58:40.820Z,0
2017-03-05T04:59:21.352Z,0
2017-03-05T05:00:01.891Z,0
2017-03-05T05:00:42.423Z,0
2017-03-05T05:01:22.977Z,0
2017-03-05T05:02:03.490Z,0
2017-03-05T05:02:44.020Z,0
2017-03-05T05:03:24.556Z,0
2017-03-05T05:04:05.092Z,0
2017-03-05T05:04:45.637Z,0
2017-03-05T05:05:26.156Z,0
2017-03-05T05:06:06.708Z,0
2017-03-05T05:06:47.241Z,0
2017-03-05T05:07:27.779Z,0
2017-03-05T05:08:08.319Z,0
2017-03-05T05:08:48.854Z,0
2017-03-05T05:09:29.389Z,0
2017-03-05T05:10:09.923Z,0
2017-03-05T05:10:50.455Z,0
2017-03-05T05:11:30.984Z,0
2017-03-05T05:12:11.563Z,0
2017-03-05T05:12:52.186Z,0
2017-03-05T05:13:32.716Z,0
2017-03-05T05:14:13.254Z,0
2017-03-05T05:14:53.787Z,0
2017-03-05T05:15:34.318Z,0
2017-03-05T05:16:14.848Z,0
2017-03-05T05:16:55.378Z,0
2017-03-05T05:17:35.913Z,0
2017-03-05T05:18:16.487Z,0
2017-03-05T05:18:57.016Z,0
2017-03-05T05:19:37.561Z,0
2017-03-05T05:20:18.095Z,0
2017-03-05T05:20:58.623Z,0
2017-03-05T05:21:39.158Z,0
2017-03-05T05:22:19.684Z,0
2017-03-05T05:23:00.219Z,0
2017-03-05T05:23:40.764Z,0
2017-03-05T05:24:21.298Z,0
2017-03-05T05:25:01.836Z,0
2017-03-05T05:25:42.368Z,0
2017-03-05T05:26:22.900Z,0
2017-03-05T05:27:03.437Z,0
2017-03-05T05:27:43.970Z,0
2017-03-05T05:28:24.504Z,0
2017-03-05T05:29:05.039Z,0
2017-03-05T05:29:45.581Z,0
2017-03-05T05:30:26.119Z,0
2017-03-05T05:31:06.652Z,0
2017-03-05T05:31:47.184Z,0
2017-03-05T05:32:27.747Z,0
2017-03-05T05:33:08.335Z,0
2017-03-05T05:33:48.937Z,0
2017-03-05T05:34:29.472Z,0
2017-03-05T05:35:10.011Z,0
2017-03-05T05:35:50.550Z,0
2017-03-05T05:36:31.185Z,0
2017-03-05T05:37:11.714Z,0
2017-03-05T05:37:52.263Z,0
2017-03-05T05:38:32.806Z,0
2017-03-05T05:39:13.329Z,0
2017-03-05T05:39:53.901Z,0
2017-03-05T05:40:34.460Z,0
2017-03-05T05:41:14.991Z,4
2017-03-05T05:41:55.524Z,4
2017-03-05T05:42:36.057Z,4
2017-03-05T05:43:16.595Z,0
2017-03-05T05:43:57.129Z,4
2017-03-05T05:44:37.704Z,4
2017-03-05T05:45:18.247Z,4
2017-03-05T05:45:58.892Z,4
2017-03-05T05:46:39.489Z,4
2017-03-05T05:47:20.025Z,8
2017-03-05T05:48:00.558Z,4
2017-03-05T05:48:41.094Z,8
2017-03-05T05:49:21.620Z,8
2017-03-05T05:50:02.152Z,8
2017-03-05T05:50:42.699Z,12
2017-03-05T05:51:23.235Z,12
2017-03-05T05:52:03.773Z,12
2017-03-05T05:52:44.309Z,16
2017-03-05T05:53:24.840Z,16
2017-03-05T05:54:05.378Z,16
2017-03-05T05:54:45.919Z,20
2017-03-05T05:55:26.449Z,20
2017-03-05T05:56:06.983Z,24
2017-03-05T05:56:47.518Z,24
2017-03-05T05:57:28.048Z,28
2017-03-05T05:58:08.581Z,32
2017-03-05T05:58:49.165Z,36
2017-03-05T05:59:29.699Z,40
2017-03-05T06:00:10.236Z,40
2017-03-05T06:00:50.768Z,44
2017-03-05T06:01:31.304Z,48
2017-03-05T06:02:11.837Z,56
2017-03-05T06:02:52.369Z,56
2017-03-05T06:03:32.913Z,64
2017-03-05T06:04:13.441Z,68
2017-03-05T06:04:53.966Z,72
2017-03-05T06:05:34.505Z,76
2017-03-05T06:06:15.039Z,84
2017-03-05T06:06:55.572Z,92
2017-03-05T06:07:36.110Z,96
2017-03-05T06:08:16.636Z,104
2017-03-05T06:08:57.167Z,112
2017-03-05T06:09:37.690Z,120
2017-03-05T06:10:18.223Z,128
2017-03-05T06:10:58.738Z,136
2017-03-05T06:11:39.273Z,144
2017-03-05T06:12:19.809Z,152
2017-03-05T06:13:00.346Z,164
2017-03-05T06:13:40.888Z,168
2017-03-05T06:14:21.629Z,180
2017-03-05T06:15:02.167Z,192
2017-03-05T06:15:42.696Z,200
2017-03-05T06:16:23.231Z,208
2017-03-05T06:17:03.771Z,220
2017-03-05T06:17:44.304Z,228
2017-03-05T06:18:24.840Z,240
2017-03-05T06:19:05.370Z,252
2017-03-05T06:19:45.903Z,264
2017-03-05T06:20:26.433Z,272
2017-03-05T06:21:06.976Z,288
2017-03-05T06:21:47.523Z,300
2017-03-05T06:22:28.241Z,316
2017-03-05T06:23:08.763Z,328
2017-03-05T06:23:49.296Z,344
2017-03-05T06:24:29.838Z,368
2017-03-05T06:25:10.432Z,396
2017-03-05T06:25:50.995Z,404
2017-03-05T06:26:31.532Z,424
2017-03-05T06:27:12.055Z,440
2017-03-05T06:27:52.591Z,456
2017-03-05T06:28:33.207Z,496
2017-03-05T06:29:13.918Z,532
2017-03-05T06:29:54.449Z,548
2017-03-05T06:30:35.012Z,580
2017-03-05T06:31:15.543Z,548
2017-03-05T06:31:56.081Z,716
2017-03-05T06:32:36.613Z,764
2017-03-05T06:33:17.290Z,716
2017-03-05T06:33:57.823Z,596
2017-03-05T06:34:38.361Z,588
2017-03-05T06:35:19.059Z,552
2017-03-05T06:35:59.625Z,540
2017-03-05T06:36:40.158Z,544
2017-03-05T06:37:20.693Z,536
2017-03-05T06:38:01.229Z,588
2017-03-05T06:38:41.747Z,620
2017-03-05T06:39:22.281Z,676
2017-03-05T06:40:02.817Z,696
2017-03-05T06:40:43.358Z,680
2017-03-05T06:41:23.892Z,664
2017-03-05T06:42:04.425Z,624
2017-03-05T06:42:44.960Z,568
2017-03-05T06:43:25.495Z,568
2017-03-05T06:44:06.031Z,568
2017-03-05T06:44:46.572Z,564
2017-03-05T06:45:27.114Z,616
2017-03-05T06:46:07.784Z,696
2017-03-05T06:46:49.484Z,804
2017-03-05T06:47:31.731Z,972
2017-03-05T06:48:12.925Z,988
2017-03-05T06:48:53.473Z,876
2017-03-05T06:49:34.102Z,816
2017-03-05T06:50:14.524Z,784
2017-03-05T06:50:55.086Z,848
2017-03-05T06:51:53.615Z,908
2017-03-05T06:52:34.145Z,868
2017-03-05T06:53:15.031Z,816
2017-03-05T06:53:57.085Z,828
2017-03-05T06:54:40.061Z,888
2017-03-05T06:55:22.829Z,912
2017-03-05T06:56:05.756Z,896
2017-03-05T06:56:48.251Z,924
2017-03-05T06:57:31.159Z,968
2017-03-05T06:58:13.709Z,1012
2017-03-05T06:58:56.026Z,1024
2017-03-05T06:59:36.573Z,1036
2017-03-05T07:00:17.102Z,1060
2017-03-05T07:00:57.636Z,1072
2017-03-05T07:01:38.174Z,1064
2017-03-05T07:02:18.706Z,1052
2017-03-05T07:02:59.243Z,1044
2017-03-05T07:03:39.778Z,1044
2017-03-05T07:04:20.316Z,1052
2017-03-05T07:05:00.854Z,1060
2017-03-05T07:05:41.388Z,1072
2017-03-05T07:06:21.925Z,1096
2017-03-05T07:07:02.459Z,1128
2017-03-05T07:07:42.999Z,1152
2017-03-05T07:08:23.530Z,1156
2017-03-05T07:09:04.071Z,1168
2017-03-05T07:09:44.603Z,1188
2017-03-05T07:10:26.425Z,1216
2017-03-05T07:11:08.572Z,1268
2017-03-05T07:11:50.697Z,1296
2017-03-05T07:12:34.325Z,1276
2017-03-05T07:14:54.759Z,1324
2017-03-05T07:15:35.294Z,1324
2017-03-05T07:16:15.835Z,1360
2017-03-05T07:16:56.373Z,1356
2017-03-05T07:17:36.907Z,1348
2017-03-05T07:18:17.479Z,1340
2017-03-05T07:18:58.030Z,1336
2017-03-05T07:19:38.556Z,1324
2017-03-05T07:20:19.094Z,1316
2017-03-05T07:20:59.621Z,1320
2017-03-05T07:21:40.149Z,1328
2017-03-05T07:22:21.251Z,1328
2017-03-05T07:23:04.164Z,1340
2017-03-05T07:23:47.279Z,1372
2017-03-05T07:24:29.644Z,1372
2017-03-05T07:25:12.104Z,1396
2017-03-05T07:25:54.085Z,1420
2017-03-05T07:26:37.158Z,1480
2017-03-05T07:27:20.035Z,1524
2017-03-05T07:28:01.441Z,1484
2017-03-05T07:28:43.419Z,1444
2017-03-05T07:29:26.312Z,1436
2017-03-05T07:30:10.181Z,1416
2017-03-05T07:30:51.533Z,1392
2017-03-05T07:31:34.245Z,1396
2017-03-05T07:32:15.296Z,1424
2017-03-05T07:32:55.824Z,1444
2017-03-05T07:33:36.361Z,1456
2017-03-05T07:34:16.895Z,1464
2017-03-05T07:34:57.417Z,1468
2017-03-05T07:35:37.957Z,1472
2017-03-05T07:36:18.478Z,1476
2017-03-05T07:36:59.011Z,1480
2017-03-05T07:37:39.536Z,1480
2017-03-05T07:38:20.062Z,1484
2017-03-05T07:39:00.590Z,1492
2017-03-05T07:39:41.119Z,1504
2017-03-05T07:40:21.663Z,1524
2017-03-05T07:41:02.198Z,1540
2017-03-05T07:41:42.730Z,1552
2017-03-05T07:42:23.265Z,1572
2017-03-05T07:43:03.787Z,1592
2017-03-05T07:43:44.320Z,1608
2017-03-05T07:44:24.854Z,1628
2017-03-05T07:45:05.404Z,1652
2017-03-05T07:45:45.931Z,1684
2017-03-05T07:46:26.466Z,1720
2017-03-05T07:47:06.998Z,1748
2017-03-05T07:47:47.529Z,1764
2017-03-05T07:48:28.069Z,1788
2017-03-05T07:49:08.594Z,1816
2017-03-05T07:49:49.127Z,1840
2017-03-05T07:50:29.663Z,1852
2017-03-05T07:51:10.198Z,1852
2017-03-05T07:51:50.734Z,1856
2017-03-05T07:52:31.271Z,1860
2017-03-05T07:53:11.804Z,1860
2017-03-05T07:53:52.337Z,1852
2017-03-05T07:54:32.873Z,1852
2017-03-05T07:55:13.404Z,1852
2017-03-05T07:55:53.936Z,1852
2017-03-05T07:56:34.468Z,1868
2017-03-05T07:57:15.003Z,1884
2017-03-05T07:57:55.537Z,1908
2017-03-05T07:58:36.073Z,1948
2017-03-05T07:59:16.612Z,2004
2017-03-05T07:59:57.144Z,2052
2017-03-05T08:00:39.442Z,2092
2017-03-05T08:01:23.464Z,2132
2017-03-05T08:02:06.558Z,2212
2017-03-05T08:02:48.275Z,2276
2017-03-05T08:03:30.419Z,2380
2017-03-05T08:04:13.257Z,2632
2017-03-05T08:04:56.308Z,3388
2017-03-05T08:05:38.443Z,4132
2017-03-05T08:06:18.980Z,4348
2017-03-05T08:06:59.500Z,4324
2017-03-05T08:07:40.354Z,4120
2017-03-05T08:08:20.894Z,3740
2017-03-05T08:09:02.224Z,3216
2017-03-05T08:09:42.776Z,3100
2017-03-05T08:10:23.315Z,3000
2017-03-05T08:11:03.854Z,2704
2017-03-05T08:11:44.392Z,2424
2017-03-05T08:12:24.949Z,2464
2017-03-05T08:13:05.491Z,2600
2017-03-05T08:13:46.034Z,2652
2017-03-05T08:14:26.578Z,2764
2017-03-05T08:15:07.101Z,2960
2017-03-05T08:15:47.726Z,2928
2017-03-05T08:16:28.262Z,3400
2017-03-05T08:17:09.999Z,3384
2017-03-05T08:17:52.163Z,3564
2017-03-05T08:18:32.698Z,3852
2017-03-05T08:19:13.285Z,4680
2017-03-05T08:19:53.815Z,6028
2017-03-05T08:20:34.459Z,6256
2017-03-05T08:21:14.914Z,7592
2017-03-05T08:21:55.450Z,9624
2017-03-05T08:22:35.977Z,11184
2017-03-05T08:23:16.508Z,5740
2017-03-05T08:23:57.041Z,2900
2017-03-05T08:24:37.574Z,2604
2017-03-05T08:25:18.109Z,2644
2017-03-05T08:25:58.652Z,3308
2017-03-05T08:26:39.188Z,3880
2017-03-05T08:27:19.713Z,3952
2017-03-05T08:28:00.254Z,4176
2017-03-05T08:28:40.793Z,4356
2017-03-05T08:29:21.350Z,4768
2017-03-05T08:30:01.876Z,5208
2017-03-05T08:30:42.414Z,4868
2017-03-05T08:31:22.954Z,3664
2017-03-05T08:32:03.547Z,2796
2017-03-05T08:32:44.097Z,2256
2017-03-05T08:33:24.627Z,2264
2017-03-05T08:34:05.161Z,2228
2017-03-05T08:34:45.708Z,2840
2017-03-05T08:35:29.194Z,3656
2017-03-05T08:37:51.093Z,3772
2017-03-05T08:38:34.392Z,3848
2017-03-05T08:39:18.326Z,3960
2017-03-05T08:40:01.557Z,4504
2017-03-05T08:40:44.659Z,5368
2017-03-05T08:41:28.133Z,5648
2017-03-05T08:42:11.764Z,6112
2017-03-05T08:42:52.665Z,5880
2017-03-05T08:43:33.253Z,5252
2017-03-05T08:44:13.777Z,5368
2017-03-05T08:44:54.318Z,5884
2017-03-05T08:45:34.845Z,5792
2017-03-05T08:46:15.644Z,6100
2017-03-05T08:46:56.178Z,6084
2017-03-05T08:47:36.712Z,5792
2017-03-05T08:48:17.237Z,5808
2017-03-05T08:48:57.781Z,5992
2017-03-05T08:49:38.334Z,6604
2017-03-05T08:50:18.868Z,6524
2017-03-05T08:50:59.395Z,6476
2017-03-05T08:51:39.929Z,6684
2017-03-05T08:52:20.478Z,7144
2017-03-05T08:53:01.011Z,7392
2017-03-05T08:53:41.553Z,7596
2017-03-05T08:54:22.076Z,7744
2017-03-05T08:55:02.623Z,7704
2017-03-05T08:55:43.158Z,7392
2017-03-05T08:56:23.695Z,7776
2017-03-05T08:57:04.335Z,7304
2017-03-05T08:57:44.876Z,6084
2017-03-05T08:58:25.561Z,5172
2017-03-05T08:59:06.087Z,4244
2017-03-05T08:59:46.634Z,3584
2017-03-05T09:00:27.154Z,3252
2017-03-05T09:01:07.876Z,3184
2017-03-05T09:01:48.412Z,3228
2017-03-05T09:02:28.918Z,3268
2017-03-05T09:03:09.446Z,3384
2017-03-05T09:03:49.974Z,3920
2017-03-05T09:04:30.488Z,4936
2017-03-05T09:05:11.020Z,5296
2017-03-05T09:05:51.560Z,4128
2017-03-05T09:06:32.107Z,5868
2017-03-05T09:07:12.627Z,4748
2017-03-05T09:07:53.161Z,6184
2017-03-05T09:08:33.685Z,6224
2017-03-05T09:09:14.217Z,7572
2017-03-05T09:09:54.758Z,3912
2017-03-05T09:10:35.355Z,9448
2017-03-05T09:11:15.895Z,19808
2017-03-05T09:11:56.419Z,4052
2017-03-05T09:12:36.961Z,4176
2017-03-05T09:13:17.514Z,4240
2017-03-05T09:13:58.068Z,4396
2017-03-05T09:14:38.600Z,7340
2017-03-05T09:15:19.337Z,7508
2017-03-05T09:16:00.251Z,17408
2017-03-05T09:16:41.605Z,8648
2017-03-05T09:17:23.107Z,21216
2017-03-05T09:18:05.295Z,44000
2017-03-05T09:18:47.572Z,43296
2017-03-05T09:19:29.775Z,38976
2017-03-05T09:20:12.075Z,27520
2017-03-05T09:20:53.923Z,45408
2017-03-05T09:21:36.365Z,8612
2017-03-05T09:22:17.811Z,10568
2017-03-05T09:22:59.898Z,45888
2017-03-05T09:23:42.216Z,44416
2017-03-05T09:24:24.224Z,43840
2017-03-05T09:25:06.239Z,43008
2017-03-05T09:25:48.613Z,4924
2017-03-05T09:26:30.962Z,17600
2017-03-05T09:27:13.302Z,36288
2017-03-05T09:27:55.828Z,4884
2017-03-05T09:28:38.115Z,46080
2017-03-05T09:29:20.439Z,45312
2017-03-05T09:30:01.775Z,40640
2017-03-05T09:30:43.421Z,8184
2017-03-05T09:31:26.028Z,4712
2017-03-05T09:32:07.944Z,14136
2017-03-05T09:32:50.127Z,42112
2017-03-05T09:33:32.334Z,47616
2017-03-05T09:34:14.635Z,14624
2017-03-05T09:34:56.913Z,27552
2017-03-05T09:35:38.733Z,6940
2017-03-05T09:36:21.167Z,50208
2017-03-05T09:37:03.307Z,14676
2017-03-05T09:37:45.641Z,18240
2017-03-05T09:38:28.263Z,39232
2017-03-05T09:39:10.668Z,11952
2017-03-05T09:39:53.033Z,7396
2017-03-05T09:40:35.111Z,8428
2017-03-05T09:41:17.432Z,13488
2017-03-05T09:41:59.668Z,32800
2017-03-05T09:42:42.328Z,5048
2017-03-05T09:43:24.669Z,4628
2017-03-05T09:44:07.059Z,7768
2017-03-05T09:44:49.760Z,15344
2017-03-05T09:45:31.795Z,9136
2017-03-05T09:46:14.288Z,10388
2017-03-05T09:46:56.907Z,40992
2017-03-05T09:47:39.290Z,5196
2017-03-05T09:48:21.875Z,7120
2017-03-05T09:49:04.273Z,8832
2017-03-05T09:49:46.757Z,56096
2017-03-05T09:50:28.777Z,55872
2017-03-05T09:51:11.106Z,49440
2017-03-05T09:51:53.233Z,10072
2017-03-05T09:52:35.592Z,10496
2017-03-05T09:53:17.718Z,8248
2017-03-05T09:53:59.563Z,8004
2017-03-05T09:54:41.545Z,5624
2017-03-05T09:55:23.385Z,6156
2017-03-05T09:56:05.548Z,6940
2017-03-05T09:56:47.150Z,5280
2017-03-05T09:57:28.987Z,4080
2017-03-05T09:58:10.664Z,4144
2017-03-05T09:58:52.271Z,4084
2017-03-05T09:59:33.638Z,3808
2017-03-05T10:00:15.339Z,4196
2017-03-05T10:00:57.068Z,3392
2017-03-05T10:01:38.274Z,3408
2017-03-05T10:02:19.250Z,4616
2017-03-05T10:03:00.899Z,5068
2017-03-05T10:03:42.246Z,5656
2017-03-05T10:04:23.653Z,5988
2017-03-05T10:05:04.886Z,19648
2017-03-05T10:05:46.538Z,6340
2017-03-05T10:06:28.276Z,5660
2017-03-05T10:07:09.832Z,5256
2017-03-05T10:07:51.355Z,5896
2017-03-05T10:08:32.956Z,5988
2017-03-05T10:09:14.392Z,6520
2017-03-05T10:09:55.950Z,6412
2017-03-05T10:10:37.694Z,5292
2017-03-05T10:11:19.253Z,4664
2017-03-05T10:12:00.223Z,4092
2017-03-05T10:12:41.273Z,3692
2017-03-05T10:13:22.517Z,3736
2017-03-05T10:14:04.542Z,3832
2017-03-05T10:14:46.422Z,3988
2017-03-05T10:15:28.106Z,3456
2017-03-05T10:16:10.597Z,3268
2017-03-05T10:16:51.955Z,4336